Time;durP1;ratioP1;P1;durP2;ratioP2;P2;SDS_P1;SDS_P2;PMS_P1;PMS_P2;Temp;Humidity;BMP_temperature;BMP_pressure;BME280_temperature;BME280_humidity;BME280_pressure;Samples;Min_cycle;Max_cycle;Signal;HPM_P1;HPM_P2
2023/04/11 00:00:28;;;;;;;;;;;19.20;44.70;;;;;;10325332;28;921;-73
2023/04/11 00:05:23;;;;;;;;;;;19.20;44.70;;;;;;10325723;28;1985;-73
2023/04/11 00:10:18;;;;;;;;;;;19.20;44.70;;;;;;10325117;28;917;-73
2023/04/11 00:15:15;;;;;;;;;;;19.20;44.80;;;;;;10325063;28;768;-73
2023/04/11 00:20:10;;;;;;;;;;;19.10;44.70;;;;;;10328463;28;778;-73
2023/04/11 00:25:05;;;;;;;;;;;19.10;44.70;;;;;;10332753;28;1968;-73
2023/04/11 00:30:01;;;;;;;;;;;19.20;44.70;;;;;;10332819;28;757;-73
2023/04/11 00:34:56;;;;;;;;;;;19.20;44.70;;;;;;10332498;28;853;-73
2023/04/11 00:39:53;;;;;;;;;;;19.20;44.70;;;;;;10332356;28;877;-73
2023/04/11 00:44:48;;;;;;;;;;;19.10;44.50;;;;;;10332631;28;1914;-73
2023/04/11 00:49:43;;;;;;;;;;;19.10;44.50;;;;;;10331978;28;770;-73
2023/04/11 00:54:39;;;;;;;;;;;19.20;44.60;;;;;;10331521;28;1234;-73
2023/04/11 00:59:34;;;;;;;;;;;19.10;44.60;;;;;;10332065;28;1586;-73
2023/04/11 01:04:29;;;;;;;;;;;19.10;44.50;;;;;;10331517;28;1914;-73
2023/04/11 01:09:25;;;;;;;;;;;19.10;44.50;;;;;;10331280;28;930;-73
2023/04/11 01:14:20;;;;;;;;;;;19.10;44.60;;;;;;10332002;28;802;-73
2023/04/11 01:19:16;;;;;;;;;;;19.10;44.60;;;;;;10330949;28;770;-73
2023/04/11 01:24:12;;;;;;;;;;;19.10;44.40;;;;;;10330620;28;1906;-73
2023/04/11 01:29:07;;;;;;;;;;;19.00;44.30;;;;;;10330504;28;861;-73
2023/04/11 01:34:03;;;;;;;;;;;19.00;44.40;;;;;;10330006;28;757;-73
2023/04/11 01:38:58;;;;;;;;;;;19.10;44.50;;;;;;10330156;28;930;-73
2023/04/11 01:43:54;;;;;;;;;;;19.10;44.50;;;;;;10330536;28;1968;-73
2023/04/11 01:48:49;;;;;;;;;;;19.00;45.10;;;;;;10330388;28;921;-73
2023/04/11 01:53:46;;;;;;;;;;;19.00;44.60;;;;;;10330133;28;1037;-73
2023/04/11 01:58:41;;;;;;;;;;;19.00;44.60;;;;;;10329697;28;1124;-73
2023/04/11 02:03:36;;;;;;;;;;;19.00;44.60;;;;;;10329223;28;888;-73
2023/04/11 02:08:32;;;;;;;;;;;19.00;44.50;;;;;;10329015;28;1898;-73
2023/04/11 02:13:27;;;;;;;;;;;19.00;44.50;;;;;;10329697;28;848;-73
2023/04/11 02:18:23;;;;;;;;;;;19.00;44.60;;;;;;10328628;28;1023;-73
2023/04/11 02:23:18;;;;;;;;;;;19.00;44.60;;;;;;10329172;28;843;-73
2023/04/11 02:28:13;;;;;;;;;;;19.00;44.60;;;;;;10328752;28;1906;-73
2023/04/11 02:33:09;;;;;;;;;;;19.00;44.50;;;;;;10328091;28;888;-73
2023/04/11 02:38:04;;;;;;;;;;;19.00;44.60;;;;;;10327134;28;971;-73
2023/04/11 02:43:00;;;;;;;;;;;18.90;44.50;;;;;;10326759;28;810;-73
2023/04/11 02:47:55;;;;;;;;;;;18.90;44.60;;;;;;10327309;28;1972;-73
2023/04/11 02:52:51;;;;;;;;;;;18.90;44.70;;;;;;10327237;28;935;-73
2023/04/11 02:57:46;;;;;;;;;;;18.90;44.70;;;;;;10327782;28;1160;-73
2023/04/11 03:02:42;;;;;;;;;;;18.90;44.70;;;;;;10326502;28;967;-73
2023/04/11 03:07:39;;;;;;;;;;;18.90;44.70;;;;;;10326620;28;1906;-73
2023/04/11 03:12:34;;;;;;;;;;;18.90;44.70;;;;;;10326455;28;906;-73
2023/04/11 03:17:30;;;;;;;;;;;18.90;44.70;;;;;;10326373;28;821;-73
2023/04/11 03:22:25;;;;;;;;;;;18.90;44.70;;;;;;10326806;28;763;-73
2023/04/11 03:27:20;;;;;;;;;;;18.90;44.60;;;;;;10326036;28;1906;-73
2023/04/11 03:32:16;;;;;;;;;;;18.90;44.70;;;;;;10325340;28;945;-73
2023/04/11 03:37:11;;;;;;;;;;;18.90;44.70;;;;;;10325852;28;755;-73
2023/04/11 03:42:07;;;;;;;;;;;18.90;44.60;;;;;;10326222;28;843;-73
2023/04/11 03:47:02;;;;;;;;;;;18.90;44.70;;;;;;10325524;28;1960;-73
2023/04/11 03:51:57;;;;;;;;;;;18.90;44.60;;;;;;10325516;28;889;-73
2023/04/11 03:56:53;;;;;;;;;;;18.90;44.50;;;;;;10325396;28;1285;-73
2023/04/11 04:01:48;;;;;;;;;;;18.90;45.10;;;;;;10325906;28;974;-73
2023/04/11 04:06:44;;;;;;;;;;;18.90;44.60;;;;;;10325165;28;1926;-73
2023/04/11 04:11:40;;;;;;;;;;;18.90;44.60;;;;;;10325073;28;986;-73
2023/04/11 04:16:35;;;;;;;;;;;18.90;44.40;;;;;;10325667;28;860;-73
2023/04/11 04:21:32;;;;;;;;;;;18.90;44.40;;;;;;10324944;28;822;-73
2023/04/11 04:26:28;;;;;;;;;;;18.90;44.60;;;;;;10325004;28;1977;-73
2023/04/11 04:31:28;;;;;;;;;;;18.90;44.50;;;;;;10324744;28;1148;-73
2023/04/11 04:36:23;;;;;;;;;;;18.90;44.50;;;;;;10325255;28;824;-73
2023/04/11 04:41:21;;;;;;;;;;;18.90;44.40;;;;;;10325697;28;778;-73
2023/04/11 04:46:17;;;;;;;;;;;18.90;44.50;;;;;;10324302;28;1906;-73
2023/04/11 04:51:12;;;;;;;;;;;18.90;44.40;;;;;;10324391;28;806;-73
2023/04/11 04:56:07;;;;;;;;;;;18.90;44.40;;;;;;10324824;28;1299;-73
2023/04/11 05:01:03;;;;;;;;;;;18.90;44.40;;;;;;10324775;28;783;-73
2023/04/11 05:05:59;;;;;;;;;;;18.90;44.40;;;;;;10326366;28;1914;-73
2023/04/11 05:10:55;;;;;;;;;;;18.90;44.30;;;;;;10331240;28;1615;-73
2023/04/11 05:15:50;;;;;;;;;;;18.90;44.40;;;;;;10331157;28;849;-73
2023/04/11 05:20:46;;;;;;;;;;;18.90;44.40;;;;;;10330983;28;778;-73
2023/04/11 05:25:41;;;;;;;;;;;18.90;44.40;;;;;;10330705;28;1906;-73
2023/04/11 05:30:37;;;;;;;;;;;18.90;44.50;;;;;;10330003;28;893;-73
2023/04/11 05:35:32;;;;;;;;;;;18.90;44.60;;;;;;10331066;28;778;-72
2023/04/11 05:40:27;;;;;;;;;;;19.00;44.40;;;;;;10330831;28;818;-72
2023/04/11 05:45:23;;;;;;;;;;;19.00;44.50;;;;;;10330498;28;1901;-73
2023/04/11 05:50:18;;;;;;;;;;;19.00;44.40;;;;;;10329845;28;837;-72
2023/04/11 05:55:13;;;;;;;;;;;19.00;44.50;;;;;;10328801;28;1443;-72
2023/04/11 06:00:15;;;;;;;;;;;19.00;44.60;;;;;;10329397;28;1310;-72
2023/04/11 06:05:10;;;;;;;;;;;19.00;44.60;;;;;;10329144;28;1979;-72
2023/04/11 06:10:06;;;;;;;;;;;19.00;44.50;;;;;;10328968;28;934;-73
2023/04/11 06:15:01;;;;;;;;;;;18.90;44.50;;;;;;10329519;28;770;-73
2023/04/11 06:19:56;;;;;;;;;;;18.90;44.40;;;;;;10329142;28;964;-72
2023/04/11 06:24:52;;;;;;;;;;;18.90;44.60;;;;;;10328595;28;2001;-72
2023/04/11 06:29:47;;;;;;;;;;;18.90;44.60;;;;;;10328137;28;833;-72
2023/04/11 06:34:43;;;;;;;;;;;18.90;44.60;;;;;;10328602;28;830;-72
2023/04/11 06:39:38;;;;;;;;;;;18.90;44.80;;;;;;10328580;28;867;-72
2023/04/11 06:44:34;;;;;;;;;;;18.90;44.80;;;;;;10327565;28;1907;-72
2023/04/11 06:49:30;;;;;;;;;;;19.00;44.80;;;;;;10327468;28;907;-72
2023/04/11 06:54:25;;;;;;;;;;;19.00;44.80;;;;;;10327019;28;1105;-72
2023/04/11 06:59:20;;;;;;;;;;;19.00;44.90;;;;;;10326451;28;781;-73
2023/04/11 07:04:16;;;;;;;;;;;18.90;44.80;;;;;;10326138;28;1919;-73
2023/04/11 07:09:11;;;;;;;;;;;18.90;44.80;;;;;;10327275;28;841;-76
2023/04/11 07:14:07;;;;;;;;;;;18.90;44.90;;;;;;10326479;28;992;-76
2023/04/11 07:19:02;;;;;;;;;;;18.90;44.90;;;;;;10309405;28;1857;-77
2023/04/11 07:23:59;;;;;;;;;;;18.90;44.90;;;;;;10326777;28;958;-76
2023/04/11 07:28:54;;;;;;;;;;;18.90;44.90;;;;;;10325633;28;1914;-76
2023/04/11 07:33:50;;;;;;;;;;;19.00;44.90;;;;;;10326523;28;810;-76
2023/04/11 07:38:45;;;;;;;;;;;18.90;45.00;;;;;;10325755;28;886;-75
2023/04/11 07:43:41;;;;;;;;;;;18.90;44.90;;;;;;10326340;28;855;-69
2023/04/11 07:48:36;;;;;;;;;;;19.00;44.90;;;;;;10325536;28;1914;-70
2023/04/11 07:53:32;;;;;;;;;;;19.00;44.90;;;;;;10325994;28;993;-71
2023/04/11 07:58:27;;;;;;;;;;;19.00;44.90;;;;;;10324724;28;1528;-70
2023/04/11 08:03:22;;;;;;;;;;;19.00;45.00;;;;;;10325294;28;834;-70
2023/04/11 08:08:18;;;;;;;;;;;19.00;44.80;;;;;;10325013;28;1914;-71
2023/04/11 08:13:13;;;;;;;;;;;19.10;45.20;;;;;;10325131;28;768;-71
2023/04/11 08:18:08;;;;;;;;;;;19.10;45.40;;;;;;10325032;28;794;-70
2023/04/11 08:23:06;;;;;;;;;;;19.10;45.30;;;;;;10325520;28;949;-70
2023/04/11 08:28:03;;;;;;;;;;;19.10;45.60;;;;;;10324693;28;1918;-71
2023/04/11 08:32:58;;;;;;;;;;;19.10;45.50;;;;;;10325443;28;857;-69
2023/04/11 08:37:54;;;;;;;;;;;19.10;45.30;;;;;;10325266;28;802;-70
2023/04/11 08:42:49;;;;;;;;;;;19.10;45.30;;;;;;10330013;28;1527;-71
2023/04/11 08:47:45;;;;;;;;;;;19.10;45.50;;;;;;10332167;28;1977;-70
2023/04/11 08:52:40;;;;;;;;;;;19.00;45.30;;;;;;10331651;28;956;-71
2023/04/11 08:57:37;;;;;;;;;;;19.10;45.20;;;;;;10332059;28;1160;-71
2023/04/11 09:02:32;;;;;;;;;;;19.10;45.10;;;;;;10332238;28;1196;-76
2023/04/11 09:07:27;;;;;;;;;;;19.10;45.40;;;;;;10330806;28;1983;-71
2023/04/11 09:12:23;;;;;;;;;;;19.00;45.20;;;;;;10331881;28;879;-70
2023/04/11 09:17:18;;;;;;;;;;;19.00;44.60;;;;;;10313160;28;739;-82
2023/04/11 09:22:14;;;;;;;;;;;19.00;45.10;;;;;;10330449;28;917;-83
2023/04/11 09:27:09;;;;;;;;;;;18.90;45.10;;;;;;10332095;28;1902;-83
2023/04/11 09:32:05;;;;;;;;;;;18.90;45.10;;;;;;10330473;28;901;-82
2023/04/11 09:37:00;;;;;;;;;;;18.90;44.90;;;;;;10330324;28;822;-82
2023/04/11 09:41:56;;;;;;;;;;;18.90;44.70;;;;;;10330815;28;947;-83
2023/04/11 09:46:51;;;;;;;;;;;18.90;44.80;;;;;;10329975;28;1910;-83
2023/04/11 09:51:47;;;;;;;;;;;18.90;44.80;;;;;;10329038;28;905;-83
2023/04/11 09:56:42;;;;;;;;;;;18.90;44.70;;;;;;10329859;28;1275;-83
2023/04/11 10:01:37;;;;;;;;;;;18.90;44.70;;;;;;10329506;28;795;-82
2023/04/11 10:06:33;;;;;;;;;;;18.90;44.50;;;;;;10329157;28;1969;-82
2023/04/11 10:11:29;;;;;;;;;;;18.90;44.40;;;;;;10329888;28;790;-82
2023/04/11 10:16:25;;;;;;;;;;;18.90;44.30;;;;;;10328864;28;770;-82
2023/04/11 10:21:21;;;;;;;;;;;18.90;44.30;;;;;;10328680;28;793;-81
2023/04/11 10:26:16;;;;;;;;;;;18.90;44.20;;;;;;10328488;28;1945;-81
2023/04/11 10:31:16;;;;;;;;;;;18.80;44.30;;;;;;10328545;28;842;-81
2023/04/11 10:36:11;;;;;;;;;;;18.90;44.30;;;;;;10328094;28;840;-81
2023/04/11 10:41:07;;;;;;;;;;;18.90;44.20;;;;;;10327883;28;950;-82
2023/04/11 10:46:02;;;;;;;;;;;18.90;44.20;;;;;;10329153;28;1951;-82
2023/04/11 10:50:57;;;;;;;;;;;18.90;44.10;;;;;;10327556;28;923;-82
2023/04/11 10:55:53;;;;;;;;;;;18.90;43.60;;;;;;10327437;28;1219;-82
2023/04/11 11:00:48;;;;;;;;;;;18.90;44.60;;;;;;10327106;28;932;-82
2023/04/11 11:05:44;;;;;;;;;;;18.90;43.90;;;;;;10327103;28;1985;-76
2023/04/11 11:10:39;;;;;;;;;;;18.90;44.10;;;;;;10326711;28;913;-76
2023/04/11 11:15:38;;;;;;;;;;;18.80;44.00;;;;;;10326461;28;939;-75
2023/04/11 11:20:34;;;;;;;;;;;18.80;44.10;;;;;;10326286;28;904;-74
2023/04/11 11:25:29;;;;;;;;;;;18.90;43.60;;;;;;10327408;28;1938;-73
2023/04/11 11:30:24;;;;;;;;;;;19.00;44.10;;;;;;10326107;28;849;-72
2023/04/11 11:35:20;;;;;;;;;;;19.10;44.20;;;;;;10326540;28;921;-72
2023/04/11 11:40:16;;;;;;;;;;;19.10;44.20;;;;;;10325821;28;763;-72
2023/04/11 11:45:11;;;;;;;;;;;19.10;44.60;;;;;;10325612;28;1961;-74
2023/04/11 11:50:07;;;;;;;;;;;19.10;44.90;;;;;;10326177;28;798;-74
2023/04/11 11:55:04;;;;;;;;;;;19.20;44.60;;;;;;10325208;28;1248;-72
2023/04/11 11:59:59;;;;;;;;;;;19.20;44.20;;;;;;10325979;28;933;-71
2023/04/11 12:04:56;;;;;;;;;;;19.20;44.20;;;;;;10325795;28;1902;-73
2023/04/11 12:09:52;;;;;;;;;;;19.20;44.80;;;;;;10325147;28;890;-72
2023/04/11 12:14:47;;;;;;;;;;;19.30;44.80;;;;;;10327559;28;778;-72
2023/04/11 12:19:42;;;;;;;;;;;19.30;44.80;;;;;;10332879;28;849;-72
2023/04/11 12:24:38;;;;;;;;;;;19.20;44.60;;;;;;10333949;28;1988;-75
2023/04/11 12:29:33;;;;;;;;;;;19.20;44.50;;;;;;10333630;28;847;-75
2023/04/11 12:34:28;;;;;;;;;;;19.20;44.10;;;;;;10332231;28;956;-76
2023/04/11 12:39:24;;;;;;;;;;;19.20;44.50;;;;;;10332597;28;847;-75
2023/04/11 12:44:20;;;;;;;;;;;19.20;44.30;;;;;;10332346;28;1894;-75
2023/04/11 12:49:15;;;;;;;;;;;19.20;44.20;;;;;;10332170;28;881;-76
2023/04/11 12:54:10;;;;;;;;;;;19.20;44.50;;;;;;10331977;28;888;-76
2023/04/11 12:59:06;;;;;;;;;;;19.20;44.20;;;;;;10332874;28;1170;-72
2023/04/11 13:04:01;;;;;;;;;;;19.20;44.10;;;;;;10331408;28;831;-71
2023/04/11 13:08:57;;;;;;;;;;;19.30;44.10;;;;;;10331210;28;1973;-72
2023/04/11 13:13:52;;;;;;;;;;;19.30;43.30;;;;;;10331657;28;790;-72
2023/04/11 13:18:48;;;;;;;;;;;19.20;43.60;;;;;;10330909;28;770;-72
2023/04/11 13:23:43;;;;;;;;;;;19.30;44.20;;;;;;10330660;28;950;-72
2023/04/11 13:28:39;;;;;;;;;;;19.30;44.20;;;;;;10330208;28;1970;-72
2023/04/11 13:33:34;;;;;;;;;;;19.40;44.40;;;;;;10330375;28;755;-72
2023/04/11 13:38:30;;;;;;;;;;;19.40;44.20;;;;;;10330755;28;774;-70
2023/04/11 13:43:25;;;;;;;;;;;19.30;44.40;;;;;;10329974;28;989;-72
2023/04/11 13:48:21;;;;;;;;;;;19.30;44.40;;;;;;10329637;28;1959;-72
2023/04/11 13:53:16;;;;;;;;;;;19.40;44.70;;;;;;10329437;28;781;-72
2023/04/11 13:58:11;;;;;;;;;;;19.40;44.50;;;;;;10328970;28;1223;-73
2023/04/11 14:03:07;;;;;;;;;;;19.50;43.90;;;;;;10329288;28;936;-72
2023/04/11 14:08:02;;;;;;;;;;;19.60;43.90;;;;;;10329816;28;1911;-72
2023/04/11 14:12:57;;;;;;;;;;;19.60;43.90;;;;;;10329149;28;746;-71
2023/04/11 14:17:53;;;;;;;;;;;19.60;43.90;;;;;;10329640;28;827;-72
2023/04/11 14:22:48;;;;;;;;;;;19.70;43.70;;;;;;10328870;28;854;-73
2023/04/11 14:27:43;;;;;;;;;;;19.70;43.80;;;;;;10328407;28;1945;-72
2023/04/11 14:32:39;;;;;;;;;;;19.70;43.90;;;;;;10328427;28;996;-72
2023/04/11 14:37:35;;;;;;;;;;;19.80;43.70;;;;;;10327560;28;770;-70
2023/04/11 14:42:30;;;;;;;;;;;19.90;43.70;;;;;;10328497;28;893;-72
2023/04/11 14:47:26;;;;;;;;;;;19.80;43.80;;;;;;10328175;28;1898;-73
2023/04/11 14:52:21;;;;;;;;;;;19.90;43.90;;;;;;10328056;28;936;-72
2023/04/11 14:57:16;;;;;;;;;;;19.80;44.10;;;;;;10327920;28;1132;-72
2023/04/11 15:02:12;;;;;;;;;;;19.90;44.10;;;;;;10326474;28;939;-72
2023/04/11 15:07:07;;;;;;;;;;;20.00;44.10;;;;;;10326745;28;1938;-72
2023/04/11 15:12:03;;;;;;;;;;;20.00;44.30;;;;;;10327326;28;784;-72
2023/04/11 15:16:58;;;;;;;;;;;20.10;44.40;;;;;;10326557;28;888;-72
2023/04/11 15:21:53;;;;;;;;;;;20.10;44.60;;;;;;10326329;28;883;-71
2023/04/11 15:26:49;;;;;;;;;;;20.20;44.60;;;;;;10326514;28;1906;-71
2023/04/11 15:31:45;;;;;;;;;;;20.20;44.70;;;;;;10326032;28;858;-72
2023/04/11 15:36:41;;;;;;;;;;;20.30;44.70;;;;;;10326634;28;830;-72
2023/04/11 15:41:36;;;;;;;;;;;20.20;44.60;;;;;;10325833;28;856;-71
2023/04/11 15:46:32;;;;;;;;;;;20.20;44.70;;;;;;10325824;28;1965;-70
2023/04/11 15:51:28;;;;;;;;;;;20.10;44.70;;;;;;10325858;28;837;-70
2023/04/11 15:56:23;;;;;;;;;;;20.00;44.80;;;;;;10325442;28;1199;-70
2023/04/11 16:01:21;;;;;;;;;;;19.90;44.80;;;;;;10325513;28;773;-70
2023/04/11 16:06:17;;;;;;;;;;;19.90;45.40;;;;;;10325268;28;1914;-71
2023/04/11 16:11:12;;;;;;;;;;;19.90;44.80;;;;;;10325306;28;766;-70
2023/04/11 16:16:08;;;;;;;;;;;19.80;44.80;;;;;;10325334;28;869;-70
2023/04/11 16:21:03;;;;;;;;;;;19.80;44.80;;;;;;10325108;28;944;-70
2023/04/11 16:25:58;;;;;;;;;;;19.70;44.80;;;;;;10324936;28;1973;-70
2023/04/11 16:30:54;;;;;;;;;;;19.70;44.80;;;;;;10324825;28;806;-70
2023/04/11 16:35:49;;;;;;;;;;;19.70;44.80;;;;;;10325913;28;842;-70
2023/04/11 16:40:45;;;;;;;;;;;19.70;44.80;;;;;;10324609;28;886;-70
2023/04/11 16:45:40;;;;;;;;;;;19.70;44.70;;;;;;10325145;28;1959;-70
2023/04/11 16:50:35;;;;;;;;;;;19.70;44.70;;;;;;10324508;28;790;-70
2023/04/11 16:55:31;;;;;;;;;;;19.70;44.60;;;;;;10325289;28;1168;-70
2023/04/11 17:00:28;;;;;;;;;;;19.70;44.60;;;;;;10324952;28;833;-70
2023/04/11 17:05:23;;;;;;;;;;;19.60;44.40;;;;;;10332172;28;1914;-70
2023/04/11 17:10:19;;;;;;;;;;;19.60;44.50;;;;;;10332086;28;794;-70
2023/04/11 17:15:14;;;;;;;;;;;19.70;44.50;;;;;;10332377;28;910;-70
2023/04/11 17:20:10;;;;;;;;;;;19.60;44.10;;;;;;10331122;28;945;-70
2023/04/11 17:25:05;;;;;;;;;;;19.60;44.10;;;;;;10330295;28;1961;-70
2023/04/11 17:30:01;;;;;;;;;;;19.60;44.20;;;;;;10330781;28;857;-70
2023/04/11 17:34:56;;;;;;;;;;;19.70;44.50;;;;;;10331217;28;857;-70
2023/04/11 17:39:52;;;;;;;;;;;19.60;44.50;;;;;;10330428;28;774;-70
2023/04/11 17:44:47;;;;;;;;;;;19.60;44.30;;;;;;10330216;28;1902;-70
2023/04/11 17:49:44;;;;;;;;;;;19.60;44.20;;;;;;10330100;28;806;-70
2023/04/11 17:54:39;;;;;;;;;;;19.60;44.60;;;;;;10329603;28;1062;-70
2023/04/11 17:59:35;;;;;;;;;;;19.60;44.30;;;;;;10329809;28;746;-70
2023/04/11 18:04:31;;;;;;;;;;;19.60;44.50;;;;;;10330886;28;1974;-70
2023/04/11 18:09:30;;;;;;;;;;;19.60;44.60;;;;;;10329282;28;874;-70
2023/04/11 18:14:25;;;;;;;;;;;19.60;44.70;;;;;;10328775;28;937;-70
2023/04/11 18:19:21;;;;;;;;;;;19.60;44.80;;;;;;10328954;28;775;-70
2023/04/11 18:24:16;;;;;;;;;;;19.60;44.70;;;;;;10328885;28;1036;-70
2023/04/11 18:29:12;;;;;;;;;;;19.60;44.60;;;;;;10328947;28;1972;-70
2023/04/11 18:34:07;;;;;;;;;;;19.60;44.90;;;;;;10328918;28;976;-70
2023/04/11 18:39:03;;;;;;;;;;;19.60;44.90;;;;;;10328134;28;746;-70
2023/04/11 18:43:58;;;;;;;;;;;19.60;44.90;;;;;;10327898;28;942;-70
2023/04/11 18:48:54;;;;;;;;;;;19.60;45.10;;;;;;10327679;28;1902;-70
2023/04/11 18:53:49;;;;;;;;;;;19.60;45.20;;;;;;10327461;28;825;-70
2023/04/11 18:58:45;;;;;;;;;;;19.60;45.20;;;;;;10327094;28;1413;-70
2023/04/11 19:03:40;;;;;;;;;;;19.60;45.20;;;;;;10327933;28;882;-70
2023/04/11 19:08:36;;;;;;;;;;;19.60;45.30;;;;;;10326828;28;1906;-70
2023/04/11 19:13:31;;;;;;;;;;;19.60;45.40;;;;;;10327350;28;947;-70
2023/04/11 19:18:27;;;;;;;;;;;19.70;45.40;;;;;;10327525;28;845;-70
2023/04/11 19:23:22;;;;;;;;;;;19.70;45.40;;;;;;10325781;28;950;-70
2023/04/11 19:28:17;;;;;;;;;;;19.60;45.40;;;;;;10325521;28;1902;-70
2023/04/11 19:33:13;;;;;;;;;;;19.60;45.60;;;;;;10326206;28;823;-70
2023/04/11 19:38:08;;;;;;;;;;;19.60;45.50;;;;;;10326543;28;892;-71
2023/04/11 19:43:04;;;;;;;;;;;19.60;45.80;;;;;;10325829;28;903;-70
2023/04/11 19:47:59;;;;;;;;;;;19.60;45.50;;;;;;10325746;28;1964;-70
2023/04/11 19:53:00;;;;;;;;;;;19.60;45.60;;;;;;10325790;28;859;-71
2023/04/11 19:57:55;;;;;;;;;;;19.60;45.70;;;;;;10325891;28;1087;-71
2023/04/11 20:02:50;;;;;;;;;;;19.60;45.70;;;;;;10325424;28;801;-79
2023/04/11 20:07:46;;;;;;;;;;;19.60;45.80;;;;;;10325251;28;1905;-80
2023/04/11 20:12:41;;;;;;;;;;;19.60;46.20;;;;;;10325268;28;869;-80
2023/04/11 20:17:37;;;;;;;;;;;19.50;45.90;;;;;;10325175;28;812;-80
2023/04/11 20:22:32;;;;;;;;;;;19.50;45.80;;;;;;10325718;28;823;-79
2023/04/11 20:27:28;;;;;;;;;;;19.50;45.70;;;;;;10324885;28;1906;-79
2023/04/11 20:32:23;;;;;;;;;;;19.50;45.60;;;;;;10324847;28;928;-80
2023/04/11 20:37:21;;;;;;;;;;;19.50;45.60;;;;;;10329788;28;988;-80
2023/04/11 20:42:16;;;;;;;;;;;19.50;45.60;;;;;;10333209;28;933;-80
2023/04/11 20:47:11;;;;;;;;;;;19.40;45.50;;;;;;10332386;28;1894;-80
2023/04/11 20:52:07;;;;;;;;;;;19.40;45.50;;;;;;10332272;28;821;-80
2023/04/11 20:57:02;;;;;;;;;;;19.50;45.60;;;;;;10331551;28;1326;-80
2023/04/11 21:01:58;;;;;;;;;;;19.40;45.50;;;;;;10332483;28;782;-80
2023/04/11 21:06:53;;;;;;;;;;;19.40;45.50;;;;;;10331625;28;1967;-80
2023/04/11 21:11:48;;;;;;;;;;;19.40;45.40;;;;;;10331477;28;920;-80
2023/04/11 21:16:44;;;;;;;;;;;19.50;45.50;;;;;;10330709;28;971;-81
2023/04/11 21:21:39;;;;;;;;;;;19.40;45.50;;;;;;10331110;28;993;-81
2023/04/11 21:26:35;;;;;;;;;;;19.40;45.50;;;;;;10331459;28;1959;-80
2023/04/11 21:31:30;;;;;;;;;;;19.40;45.50;;;;;;10330734;28;1133;-81
2023/04/11 21:36:26;;;;;;;;;;;19.40;45.50;;;;;;10331275;28;873;-80
2023/04/11 21:41:22;;;;;;;;;;;19.40;45.50;;;;;;10330513;28;854;-81
2023/04/11 21:46:17;;;;;;;;;;;19.40;45.50;;;;;;10329743;28;1906;-81
2023/04/11 21:51:12;;;;;;;;;;;19.40;45.50;;;;;;10330114;28;865;-81
2023/04/11 21:56:08;;;;;;;;;;;19.40;45.50;;;;;;10330095;28;1109;-80
2023/04/11 22:01:03;;;;;;;;;;;19.40;45.50;;;;;;10330350;28;936;-81
2023/04/11 22:05:59;;;;;;;;;;;19.40;45.50;;;;;;10330052;28;1965;-81
2023/04/11 22:10:54;;;;;;;;;;;19.40;45.50;;;;;;10329342;28;814;-81
2023/04/11 22:16:09;;;;;;;;;;;19.40;45.50;;;;;;10329095;28;972;-81
2023/04/11 22:21:07;;;;;;;;;;;19.40;45.50;;;;;;10329005;28;774;-81
2023/04/11 22:26:04;;;;;;;;;;;19.40;45.50;;;;;;10329253;28;1902;-81
2023/04/11 22:31:00;;;;;;;;;;;19.40;45.50;;;;;;10310591;28;1222;-81
2023/04/11 22:35:57;;;;;;;;;;;19.30;45.40;;;;;;10328201;28;894;-81
2023/04/11 22:40:52;;;;;;;;;;;19.30;45.40;;;;;;10311613;28;759;-81
2023/04/11 22:45:47;;;;;;;;;;;19.40;45.40;;;;;;10327820;28;1902;-81
2023/04/11 22:50:51;;;;;;;;;;;19.30;45.40;;;;;;10327685;28;868;-81
2023/04/11 22:55:47;;;;;;;;;;;19.30;45.40;;;;;;10328620;28;1098;-82
2023/04/11 23:00:43;;;;;;;;;;;19.30;45.50;;;;;;10326278;28;793;-82
2023/04/11 23:05:39;;;;;;;;;;;19.30;45.40;;;;;;10327609;28;1978;-81
2023/04/11 23:10:35;;;;;;;;;;;19.30;45.40;;;;;;10327528;28;774;-82
2023/04/11 23:15:30;;;;;;;;;;;19.30;45.40;;;;;;10326720;28;811;-82
2023/04/11 23:20:26;;;;;;;;;;;19.30;45.40;;;;;;10326572;28;862;-82
2023/04/11 23:25:21;;;;;;;;;;;19.30;45.30;;;;;;10326284;28;1953;-82
2023/04/11 23:30:17;;;;;;;;;;;19.30;45.40;;;;;;10326278;28;833;-82
2023/04/11 23:35:12;;;;;;;;;;;19.30;45.50;;;;;;10326723;28;874;-81
2023/04/11 23:40:12;;;;;;;;;;;19.30;45.50;;;;;;10326624;28;786;-82
2023/04/11 23:45:09;;;;;;;;;;;19.30;45.50;;;;;;10326442;28;1957;-82
2023/04/11 23:50:04;;;;;;;;;;;19.30;45.40;;;;;;10326515;28;811;-82
2023/04/11 23:55:00;;;;;;;;;;;19.30;45.40;;;;;;10325325;28;1610;-82
2023/04/11 23:59:55;;;;;;;;;;;19.30;45.40;;;;;;10324982;28;884;-82
